createdAt,value
2023-01-30T00:01:46.278Z,98017.77
2023-01-30T00:04:17.025Z,98014.89
2023-01-30T00:06:45.568Z,98011.37
2023-01-30T00:09:15.240Z,98008.35
2023-01-30T00:11:43.204Z,98003.26
2023-01-30T00:14:11.421Z,98001.92
2023-01-30T00:16:39.490Z,98001.59
2023-01-30T00:19:07.530Z,98001.12
2023-01-30T00:21:35.644Z,98003.92
2023-01-30T00:24:03.726Z,98003.31
2023-01-30T00:26:32.827Z,98005.46
2023-01-30T00:29:02.047Z,98010.54
2023-01-30T00:31:31.818Z,98013.98
2023-01-30T00:33:59.889Z,98010.97
2023-01-30T00:36:27.857Z,98007.28
2023-01-30T00:38:57.204Z,98006.91
2023-01-30T00:41:45.216Z,98008.09
2023-01-30T00:44:32.085Z,98006.34
2023-01-30T00:47:06.882Z,98003.23
2023-01-30T00:49:35.978Z,98007.32
2023-01-30T00:52:04.158Z,98008.11
2023-01-30T00:54:32.236Z,98001.80
2023-01-30T00:57:00.376Z,98000.91
2023-01-30T00:59:28.392Z,98003.86
2023-01-30T01:01:56.420Z,98001.80
2023-01-30T01:04:24.505Z,97998.42
2023-01-30T01:06:52.596Z,97990.18
2023-01-30T01:09:21.280Z,97985.50
2023-01-30T01:11:49.321Z,97979.75
2023-01-30T01:14:17.597Z,97977.17
2023-01-30T01:16:46.040Z,97971.69
2023-01-30T01:19:14.214Z,97966.84
2023-01-30T01:21:42.319Z,97965.81
2023-01-30T01:24:12.843Z,97962.23
2023-01-30T01:26:42.721Z,97960.57
2023-01-30T01:29:16.529Z,97955.81
2023-01-30T01:31:45.635Z,97949.97
2023-01-30T01:34:13.847Z,97947.45
2023-01-30T01:36:54.023Z,97942.61
2023-01-30T01:39:23.462Z,97938.50
2023-01-30T01:41:51.944Z,97934.75
2023-01-30T01:44:19.929Z,97929.64
2023-01-30T01:46:47.904Z,97925.98
2023-01-30T01:49:18.963Z,97925.98
2023-01-30T01:51:50.591Z,97921.80
2023-01-30T01:54:37.693Z,97918.92
2023-01-30T01:57:08.446Z,97914.80
2023-01-30T01:59:40.143Z,97913.10
2023-01-30T02:02:10.760Z,97915.02
2023-01-30T02:04:59.455Z,97910.20
2023-01-30T02:07:30.126Z,97911.58
2023-01-30T02:09:58.875Z,97912.66
2023-01-30T02:12:26.944Z,97908.71
2023-01-30T02:14:56.817Z,97903.85
2023-01-30T02:17:25.110Z,97905.93
2023-01-30T02:20:16.993Z,97912.28
2023-01-30T02:23:14.578Z,97908.53
2023-01-30T02:25:56.993Z,97907.77
2023-01-30T02:28:34.429Z,97906.44
2023-01-30T02:31:07.941Z,97912.18
2023-01-30T02:33:45.639Z,97910.84
2023-01-30T02:36:25.761Z,97912.05
2023-01-30T02:39:03.191Z,97910.22
2023-01-30T02:41:49.011Z,97912.25
2023-01-30T02:44:23.416Z,97910.34
2023-01-30T02:46:57.440Z,97908.52
2023-01-30T02:49:34.402Z,97907.20
2023-01-30T02:52:03.840Z,97901.63
2023-01-30T02:54:32.888Z,97898.09
2023-01-30T02:57:01.321Z,97902.46
2023-01-30T02:59:30.166Z,97897.11
2023-01-30T03:02:17.634Z,97889.95
2023-01-30T03:04:58.789Z,97887.33
2023-01-30T03:07:36.320Z,97879.81
2023-01-30T03:10:11.569Z,97877.27
2023-01-30T03:12:59.118Z,97876.76
2023-01-30T03:15:31.179Z,97874.03
2023-01-30T03:17:59.926Z,97864.77
2023-01-30T03:20:28.561Z,97857.02
2023-01-30T03:22:57.141Z,97847.86
2023-01-30T03:25:27.211Z,97842.14
2023-01-30T03:27:56.224Z,97839.84
2023-01-30T03:30:25.961Z,97841.36
2023-01-30T03:32:59.156Z,97836.25
2023-01-30T03:35:27.337Z,97836.45
2023-01-30T03:37:55.386Z,97839.58
2023-01-30T03:40:23.480Z,97840.98
2023-01-30T03:42:52.000Z,97837.95
2023-01-30T03:45:20.319Z,97837.92
2023-01-30T03:47:48.975Z,97837.27
2023-01-30T03:50:18.104Z,97834.74
2023-01-30T03:52:47.125Z,97830.48
2023-01-30T03:55:18.016Z,97830.34
2023-01-30T03:57:46.719Z,97831.38
2023-01-30T04:00:15.935Z,97830.30
2023-01-30T04:02:46.904Z,97830.60
2023-01-30T04:05:16.371Z,97825.88
2023-01-30T04:07:50.837Z,97819.63
2023-01-30T04:10:20.177Z,97818.59
2023-01-30T04:12:48.756Z,97816.45
2023-01-30T04:15:17.740Z,97815.41
2023-01-30T04:17:48.511Z,97811.36
2023-01-30T04:20:39.651Z,97806.82
2023-01-30T04:23:07.865Z,97806.59
2023-01-30T04:25:36.654Z,97803.67
2023-01-30T04:28:08.722Z,97806.07
2023-01-30T04:30:39.289Z,97806.58
2023-01-30T04:33:30.541Z,97805.40
2023-01-30T04:36:00.564Z,97805.74
2023-01-30T04:38:29.913Z,97801.65
2023-01-30T04:40:58.645Z,97799.31
2023-01-30T04:43:28.786Z,97797.28
2023-01-30T04:46:11.892Z,97796.96
2023-01-30T04:48:41.259Z,97794.04
2023-01-30T04:51:09.520Z,97791.39
2023-01-30T04:53:38.963Z,97797.23
2023-01-30T04:56:07.497Z,97794.55
2023-01-30T04:58:35.638Z,97795.11
2023-01-30T05:01:17.057Z,97795.99
2023-01-30T05:03:45.251Z,97797.48
2023-01-30T05:06:13.279Z,97793.16
2023-01-30T05:08:41.622Z,97790.79
2023-01-30T05:11:09.807Z,97786.84
2023-01-30T05:13:38.107Z,97786.84
2023-01-30T05:16:06.942Z,97786.11
2023-01-30T05:18:35.889Z,97782.97
2023-01-30T05:21:14.187Z,97779.14
2023-01-30T05:23:42.443Z,97773.96
2023-01-30T05:26:11.449Z,97763.98
2023-01-30T05:28:39.537Z,97760.77
2023-01-30T05:31:09.139Z,97767.65
2023-01-30T05:33:37.706Z,97761.27
2023-01-30T05:36:06.492Z,97759.06
2023-01-30T05:38:34.798Z,97757.55
2023-01-30T05:41:07.096Z,97757.35
2023-01-30T05:43:35.560Z,97749.83
2023-01-30T05:46:04.594Z,97746.18
2023-01-30T05:48:33.528Z,97752.90
2023-01-30T05:51:01.610Z,97750.16
2023-01-30T05:53:31.712Z,97743.06
2023-01-30T05:56:02.059Z,97746.48
2023-01-30T05:58:30.715Z,97748.39
2023-01-30T06:01:02.714Z,97748.89
2023-01-30T06:03:31.522Z,97747.54
2023-01-30T06:06:01.410Z,97749.70
2023-01-30T06:08:29.647Z,97753.70
2023-01-30T06:11:02.672Z,97751.31
2023-01-30T06:13:30.763Z,97746.66
2023-01-30T06:15:59.104Z,97742.11
2023-01-30T06:18:27.915Z,97744.98
2023-01-30T06:20:56.608Z,97737.73
2023-01-30T06:23:24.890Z,97734.79
2023-01-30T06:25:53.585Z,97734.21
2023-01-30T06:28:23.075Z,97728.57
2023-01-30T06:30:51.723Z,97726.05
2023-01-30T06:33:19.799Z,97726.03
2023-01-30T06:35:51.737Z,97725.16
2023-01-30T06:38:21.059Z,97728.77
2023-01-30T06:41:02.490Z,97730.16
2023-01-30T06:43:31.113Z,97732.78
2023-01-30T06:46:00.463Z,97736.80
2023-01-30T06:48:29.140Z,97739.60
2023-01-30T06:50:57.500Z,97744.48
2023-01-30T06:53:30.465Z,97743.16
2023-01-30T06:55:59.792Z,97739.29
2023-01-30T06:58:28.472Z,97741.73
2023-01-30T07:00:57.141Z,97741.15
2023-01-30T07:03:25.475Z,97740.06
2023-01-30T07:05:54.124Z,97739.98
2023-01-30T07:08:24.199Z,97737.95
2023-01-30T07:10:52.642Z,97737.98
2023-01-30T07:13:21.072Z,97735.56
2023-01-30T07:15:49.080Z,97734.92
2023-01-30T07:18:17.207Z,97731.86
2023-01-30T07:20:49.841Z,97727.16
2023-01-30T07:23:18.399Z,97728.14
2023-01-30T07:25:46.734Z,97728.22
2023-01-30T07:28:15.174Z,97731.04
2023-01-30T07:30:43.384Z,97734.38
2023-01-30T07:33:12.012Z,97734.93
2023-01-30T07:35:40.397Z,97735.49
2023-01-30T07:38:08.753Z,97734.59
2023-01-30T07:40:37.064Z,97734.95
2023-01-30T07:43:07.981Z,97734.13
2023-01-30T07:45:39.419Z,97730.58
2023-01-30T07:48:10.059Z,97727.80
2023-01-30T07:50:38.944Z,97722.42
2023-01-30T07:53:09.369Z,97718.67
2023-01-30T07:55:38.390Z,97714.58
2023-01-30T07:58:06.666Z,97707.80
2023-01-30T08:00:35.513Z,97707.67
2023-01-30T08:03:03.907Z,97707.90
2023-01-30T08:05:32.410Z,97705.29
2023-01-30T08:08:01.067Z,97706.56
2023-01-30T08:10:29.280Z,97705.79
2023-01-30T08:12:57.768Z,97701.92
2023-01-30T08:15:26.259Z,97699.77
2023-01-30T08:17:56.703Z,97695.96
2023-01-30T08:20:26.584Z,97693.14
2023-01-30T08:22:55.784Z,97692.92
2023-01-30T08:25:24.375Z,97691.73
2023-01-30T08:27:53.361Z,97687.80
2023-01-30T08:30:23.177Z,97686.90
2023-01-30T08:32:51.439Z,97682.59
2023-01-30T08:35:19.726Z,97679.93
2023-01-30T08:37:47.962Z,97674.98
2023-01-30T08:40:17.272Z,97668.94
2023-01-30T08:42:46.330Z,97662.67
2023-01-30T08:45:15.376Z,97661.21
2023-01-30T08:47:44.055Z,97652.99
2023-01-30T08:50:12.796Z,97651.05
2023-01-30T08:52:41.227Z,97648.64
2023-01-30T08:55:10.144Z,97646.69
2023-01-30T08:57:38.679Z,97648.41
2023-01-30T09:00:09.105Z,97646.95
2023-01-30T09:02:37.999Z,97643.92
2023-01-30T09:05:07.734Z,97640.35
2023-01-30T09:07:36.625Z,97634.61
2023-01-30T09:10:05.695Z,97628.72
2023-01-30T09:12:34.252Z,97628.66
2023-01-30T09:15:02.662Z,97621.80
2023-01-30T09:17:31.232Z,97613.70
2023-01-30T09:20:00.655Z,97610.73
2023-01-30T09:22:29.155Z,97602.02
2023-01-30T09:24:59.180Z,97596.60
2023-01-30T09:27:28.045Z,97595.01
2023-01-30T09:29:56.566Z,97599.63
2023-01-30T09:32:24.925Z,97594.22
2023-01-30T09:34:53.512Z,97581.29
2023-01-30T09:37:21.772Z,97575.35
2023-01-30T09:39:50.007Z,97570.95
2023-01-30T09:42:38.141Z,97563.94
2023-01-30T09:45:32.619Z,97556.33
2023-01-30T09:48:18.006Z,97551.53
2023-01-30T09:50:51.447Z,97550.20
2023-01-30T09:53:32.003Z,97540.23
2023-01-30T09:56:00.514Z,97533.94
2023-01-30T09:58:43.590Z,97524.88
2023-01-30T10:01:21.537Z,97523.19
2023-01-30T10:04:02.037Z,97518.81
2023-01-30T10:06:33.639Z,97508.71
2023-01-30T10:09:08.274Z,97495.98
2023-01-30T10:12:04.897Z,97495.43
2023-01-30T10:14:47.551Z,97499.54
2023-01-30T10:17:54.354Z,97499.85
2023-01-30T10:20:22.937Z,97497.87
2023-01-30T10:22:57.562Z,97497.02
2023-01-30T10:25:33.030Z,97489.38
2023-01-30T10:28:16.672Z,97487.70
2023-01-30T10:30:48.841Z,97490.75
2023-01-30T10:33:50.481Z,97493.48
2023-01-30T10:36:26.001Z,97488.20
2023-01-30T10:38:55.216Z,97482.92
2023-01-30T10:41:31.030Z,97476.41
2023-01-30T10:44:15.000Z,97475.89
2023-01-30T10:46:49.312Z,97468.10
2023-01-30T10:49:32.114Z,97467.73
2023-01-30T10:52:24.491Z,97460.84
2023-01-30T10:55:22.153Z,97450.15
2023-01-30T10:58:05.612Z,97447.52
2023-01-30T11:00:44.306Z,97440.02
2023-01-30T11:03:27.748Z,97428.32
2023-01-30T11:06:05.397Z,97416.27
2023-01-30T11:08:36.024Z,97407.02
2023-01-30T11:11:49.892Z,97399.45
2023-01-30T11:14:18.604Z,97393.23
2023-01-30T11:16:57.937Z,97384.44
2023-01-30T11:19:34.080Z,97382.21
2023-01-30T11:22:05.047Z,97372.77
2023-01-30T11:24:41.490Z,97365.23
2023-01-30T11:27:12.718Z,97353.29
2023-01-30T11:29:41.097Z,97348.88
2023-01-30T11:32:20.068Z,97348.45
2023-01-30T11:35:04.724Z,97344.68
2023-01-30T11:37:44.228Z,97335.05
2023-01-30T11:40:19.542Z,97331.22
2023-01-30T11:42:50.172Z,97330.92
2023-01-30T11:45:27.140Z,97330.76
2023-01-30T11:48:05.073Z,97324.86
2023-01-30T11:50:49.719Z,97318.30
2023-01-30T11:53:56.268Z,97315.88
2023-01-30T11:56:54.158Z,97312.63
2023-01-30T11:59:31.485Z,97302.87
2023-01-30T12:02:15.008Z,97297.38
2023-01-30T12:04:45.428Z,97290.73
2023-01-30T12:07:29.188Z,97283.63
2023-01-30T12:09:59.148Z,97277.86
2023-01-30T12:12:50.599Z,97273.10
2023-01-30T12:15:27.965Z,97267.55
2023-01-30T12:18:05.756Z,97263.34
2023-01-30T12:20:49.790Z,97266.80
2023-01-30T12:23:33.552Z,97258.35
2023-01-30T12:26:15.490Z,97253.69
2023-01-30T12:28:55.480Z,97245.96
2023-01-30T12:31:33.119Z,97235.47
2023-01-30T12:34:05.031Z,97233.48
2023-01-30T12:36:36.358Z,97233.50
2023-01-30T12:39:28.067Z,97231.05
2023-01-30T12:42:34.260Z,97226.82
2023-01-30T12:45:16.530Z,97229.45
2023-01-30T12:48:06.742Z,97232.59
2023-01-30T12:50:56.501Z,97235.30
2023-01-30T12:53:40.496Z,97238.91
2023-01-30T12:56:27.011Z,97237.75
2023-01-30T12:59:07.202Z,97231.57
2023-01-30T13:02:06.987Z,97225.69
2023-01-30T13:04:56.677Z,97227.13
2023-01-30T13:07:40.086Z,97230.99
2023-01-30T13:10:37.064Z,97231.43
2023-01-30T13:13:05.374Z,97232.71
2023-01-30T13:15:55.569Z,97229.04
2023-01-30T13:18:45.443Z,97224.09
2023-01-30T13:21:21.995Z,97219.12
2023-01-30T13:24:11.649Z,97215.89
2023-01-30T13:26:43.487Z,97210.34
2023-01-30T13:29:32.896Z,97208.05
2023-01-30T13:32:06.305Z,97209.05
2023-01-30T13:34:39.280Z,97211.48
2023-01-30T13:37:16.833Z,97206.45
2023-01-30T13:39:53.186Z,97206.74
2023-01-30T13:42:53.975Z,97201.00
2023-01-30T13:45:30.787Z,97197.27
2023-01-30T13:48:07.671Z,97200.08
2023-01-30T13:51:13.619Z,97202.96
2023-01-30T13:53:55.497Z,97199.02
2023-01-30T13:56:44.961Z,97192.48
2023-01-30T13:59:44.338Z,97184.02
2023-01-30T14:02:30.583Z,97179.13
2023-01-30T14:04:59.099Z,97173.23
2023-01-30T14:07:39.773Z,97168.23
2023-01-30T14:10:11.113Z,97166.64
2023-01-30T14:12:51.966Z,97166.23
2023-01-30T14:15:29.295Z,97162.77
2023-01-30T14:18:06.248Z,97160.30
2023-01-30T14:20:45.098Z,97157.09
2023-01-30T14:23:16.534Z,97165.69
2023-01-30T14:25:48.126Z,97162.89
2023-01-30T14:28:16.775Z,97163.04
2023-01-30T14:30:49.788Z,97170.08
2023-01-30T14:33:21.242Z,97171.29
2023-01-30T14:36:12.372Z,97165.96
2023-01-30T14:38:42.696Z,97166.65
2023-01-30T14:41:28.472Z,97165.94
2023-01-30T14:43:57.453Z,97165.77
2023-01-30T14:46:26.092Z,97162.86
2023-01-30T14:49:01.890Z,97157.52
2023-01-30T14:51:36.831Z,97160.58
2023-01-30T14:54:17.277Z,97163.30
2023-01-30T14:57:00.041Z,97161.91
2023-01-30T14:59:39.475Z,97162.40
2023-01-30T15:02:14.189Z,97158.38
2023-01-30T15:04:48.381Z,97162.19
2023-01-30T15:07:55.883Z,97158.77
2023-01-30T15:11:01.425Z,97153.37
2023-01-30T15:13:52.029Z,97147.85
2023-01-30T15:16:23.733Z,97146.09
2023-01-30T15:19:10.459Z,97151.40
2023-01-30T15:21:56.900Z,97157.94
2023-01-30T15:24:56.710Z,97158.07
2023-01-30T15:27:47.543Z,97159.80
2023-01-30T15:30:19.144Z,97153.48
2023-01-30T15:32:48.486Z,97152.16
2023-01-30T15:35:17.249Z,97158.98
2023-01-30T15:37:45.965Z,97160.45
2023-01-30T15:40:20.511Z,97158.63
2023-01-30T15:42:57.789Z,97164.30
2023-01-30T15:45:53.967Z,97160.79
2023-01-30T15:48:59.218Z,97162.63
2023-01-30T15:51:30.601Z,97161.67
2023-01-30T15:54:01.464Z,97162.67
2023-01-30T15:56:32.198Z,97158.92
2023-01-30T15:59:02.638Z,97154.12
2023-01-30T16:01:31.363Z,97158.61
2023-01-30T16:04:00.726Z,97163.58
2023-01-30T16:06:34.878Z,97162.84
2023-01-30T16:09:24.081Z,97157.01
2023-01-30T16:11:52.849Z,97158.38
2023-01-30T16:14:22.863Z,97159.71
2023-01-30T16:16:56.164Z,97156.27
2023-01-30T16:19:28.789Z,97153.52
2023-01-30T16:22:01.338Z,97153.64
2023-01-30T16:24:33.042Z,97153.60
2023-01-30T16:27:07.005Z,97156.52
2023-01-30T16:29:50.802Z,97162.86
2023-01-30T16:32:25.553Z,97167.48
2023-01-30T16:35:29.222Z,97164.15
2023-01-30T16:38:00.370Z,97158.25
2023-01-30T16:40:44.593Z,97151.70
2023-01-30T16:43:34.414Z,97150.31
2023-01-30T16:46:31.760Z,97150.08
2023-01-30T16:49:04.075Z,97147.95
2023-01-30T16:51:32.477Z,97144.02
2023-01-30T16:54:03.997Z,97142.34
2023-01-30T16:56:34.772Z,97137.19
2023-01-30T16:59:03.814Z,97130.34
2023-01-30T17:01:38.993Z,97129.98
2023-01-30T17:04:09.263Z,97129.16
2023-01-30T17:06:40.010Z,97126.59
2023-01-30T17:09:30.703Z,97122.65
2023-01-30T17:11:59.189Z,97117.64
2023-01-30T17:14:33.021Z,97121.21
2023-01-30T17:17:02.871Z,97118.40
2023-01-30T17:19:31.255Z,97114.30
2023-01-30T17:22:01.969Z,97114.33
2023-01-30T17:24:31.362Z,97117.92
2023-01-30T17:27:02.710Z,97119.48
2023-01-30T17:29:48.835Z,97112.46
2023-01-30T17:32:17.567Z,97106.11
2023-01-30T17:34:45.839Z,97102.65
2023-01-30T17:37:20.203Z,97103.00
2023-01-30T17:39:48.979Z,97107.13
2023-01-30T17:42:22.381Z,97107.48
2023-01-30T17:44:50.714Z,97109.54
2023-01-30T17:47:18.989Z,97107.14
2023-01-30T17:49:47.446Z,97109.55
2023-01-30T17:52:15.559Z,97113.66
2023-01-30T17:54:44.028Z,97116.90
2023-01-30T17:57:17.521Z,97114.50
2023-01-30T17:59:47.229Z,97110.70
2023-01-30T18:02:15.274Z,97114.67
2023-01-30T18:04:43.472Z,97111.48
2023-01-30T18:07:14.404Z,97105.86
2023-01-30T18:09:43.141Z,97102.65
2023-01-30T18:12:11.170Z,97097.73
2023-01-30T18:14:39.316Z,97096.22
2023-01-30T18:17:09.674Z,97093.34
2023-01-30T18:19:37.877Z,97092.70
2023-01-30T18:22:05.962Z,97090.45
2023-01-30T18:24:34.386Z,97088.37
2023-01-30T18:27:02.414Z,97085.27
2023-01-30T18:29:30.757Z,97081.63
2023-01-30T18:32:05.106Z,97081.93
2023-01-30T18:34:33.280Z,97080.02
2023-01-30T18:37:01.486Z,97083.24
2023-01-30T18:39:29.819Z,97083.75
2023-01-30T18:41:58.043Z,97084.61
2023-01-30T18:44:26.153Z,97089.05
2023-01-30T18:46:54.407Z,97089.84
2023-01-30T18:49:22.410Z,97091.36
2023-01-30T18:51:50.843Z,97090.30
2023-01-30T18:54:19.078Z,97088.89
2023-01-30T18:56:47.350Z,97090.72
2023-01-30T18:59:15.516Z,97086.40
2023-01-30T19:01:47.116Z,97088.63
2023-01-30T19:04:15.082Z,97088.82
2023-01-30T19:06:43.627Z,97088.30
2023-01-30T19:09:17.463Z,97092.97
2023-01-30T19:12:04.370Z,97089.91
2023-01-30T19:14:32.440Z,97088.91
2023-01-30T19:17:00.390Z,97086.21
2023-01-30T19:19:28.810Z,97078.04
2023-01-30T19:21:57.241Z,97077.08
2023-01-30T19:24:25.271Z,97078.69
2023-01-30T19:26:53.298Z,97079.94
2023-01-30T19:29:21.409Z,97079.48
2023-01-30T19:31:49.592Z,97078.45
2023-01-30T19:34:17.920Z,97076.37
2023-01-30T19:36:45.933Z,97074.84
2023-01-30T19:39:14.102Z,97069.73
2023-01-30T19:41:42.159Z,97070.29
2023-01-30T19:44:12.052Z,97071.63
2023-01-30T19:46:41.078Z,97071.88
2023-01-30T19:49:11.700Z,97072.33
2023-01-30T19:51:40.854Z,97074.39
2023-01-30T19:54:11.853Z,97075.55
2023-01-30T19:56:42.096Z,97076.22
2023-01-30T19:59:11.598Z,97077.23
2023-01-30T20:01:40.773Z,97074.91
2023-01-30T20:04:08.954Z,97069.34
2023-01-30T20:06:37.969Z,97070.80
2023-01-30T20:09:11.171Z,97064.59
2023-01-30T20:11:41.876Z,97064.70
2023-01-30T20:14:11.373Z,97068.43
2023-01-30T20:16:40.230Z,97075.80
2023-01-30T20:19:15.834Z,97075.98
2023-01-30T20:21:44.664Z,97077.19
2023-01-30T20:24:14.926Z,97074.63
2023-01-30T20:26:47.880Z,97077.90
2023-01-30T20:29:17.794Z,97077.43
2023-01-30T20:31:46.484Z,97076.11
2023-01-30T20:34:15.329Z,97068.63
2023-01-30T20:36:43.749Z,97062.84
2023-01-30T20:39:12.167Z,97060.48
2023-01-30T20:41:40.441Z,97057.73
2023-01-30T20:44:12.213Z,97058.27
2023-01-30T20:46:43.436Z,97058.70
2023-01-30T20:49:15.499Z,97051.21
2023-01-30T20:51:43.824Z,97054.38
2023-01-30T20:54:14.356Z,97059.80
2023-01-30T20:56:45.442Z,97060.30
2023-01-30T20:59:17.211Z,97065.61
2023-01-30T21:01:45.835Z,97065.91
2023-01-30T21:04:15.815Z,97050.42
2023-01-30T21:06:46.787Z,97059.45
2023-01-30T21:09:18.047Z,97070.22
2023-01-30T21:11:47.764Z,97069.02
2023-01-30T21:14:16.944Z,97070.09
2023-01-30T21:16:45.574Z,97070.83
2023-01-30T21:19:16.486Z,97067.28
2023-01-30T21:21:51.402Z,97065.80
2023-01-30T21:24:27.408Z,97061.91
2023-01-30T21:26:56.344Z,97060.90
2023-01-30T21:29:27.209Z,97062.95
2023-01-30T21:31:57.305Z,97058.90
2023-01-30T21:34:25.820Z,97060.83
2023-01-30T21:37:12.887Z,97065.96
2023-01-30T21:39:59.577Z,97064.38
2023-01-30T21:42:46.315Z,97066.11
2023-01-30T21:45:15.438Z,97065.72
2023-01-30T21:47:43.952Z,97060.98
2023-01-30T21:50:12.301Z,97064.46
2023-01-30T21:52:40.215Z,97068.35
2023-01-30T21:55:09.280Z,97071.61
2023-01-30T21:57:37.586Z,97071.96
2023-01-30T22:00:06.541Z,97071.95
2023-01-30T22:02:34.505Z,97066.52
2023-01-30T22:05:02.529Z,97062.99
2023-01-30T22:07:32.096Z,97054.33
2023-01-30T22:10:02.460Z,97050.43
2023-01-30T22:12:32.665Z,97043.95
2023-01-30T22:15:00.808Z,97041.23
2023-01-30T22:17:28.843Z,97039.89
2023-01-30T22:19:56.995Z,97034.58
2023-01-30T22:22:26.552Z,97027.55
2023-01-30T22:24:54.801Z,97020.89
2023-01-30T22:27:23.124Z,97020.21
2023-01-30T22:29:51.680Z,97023.64
2023-01-30T22:32:20.430Z,97018.38
2023-01-30T22:34:48.568Z,97018.85
2023-01-30T22:37:16.586Z,97019.58
2023-01-30T22:39:44.555Z,97017.77
2023-01-30T22:42:12.520Z,97012.24
2023-01-30T22:44:40.710Z,97013.40
2023-01-30T22:47:08.794Z,97013.09
2023-01-30T22:49:37.058Z,97007.96
2023-01-30T22:52:05.416Z,97005.60
2023-01-30T22:54:33.564Z,97006.13
2023-01-30T22:57:01.620Z,97002.56
2023-01-30T22:59:29.844Z,97002.81
2023-01-30T23:01:57.843Z,97002.70
2023-01-30T23:04:26.478Z,97006.05
2023-01-30T23:06:54.433Z,97002.73
2023-01-30T23:09:23.534Z,97002.48
2023-01-30T23:12:13.255Z,97004.42
2023-01-30T23:14:43.020Z,96999.27
2023-01-30T23:17:30.159Z,96996.84
2023-01-30T23:19:58.335Z,96994.87
2023-01-30T23:22:26.407Z,96997.27
2023-01-30T23:24:54.503Z,96992.66
2023-01-30T23:27:22.525Z,96991.21
2023-01-30T23:29:50.615Z,96990.13
2023-01-30T23:32:20.208Z,96988.89
2023-01-30T23:34:48.527Z,96984.76
2023-01-30T23:37:17.617Z,96985.27
2023-01-30T23:39:45.679Z,96986.30
2023-01-30T23:42:13.750Z,96985.64
2023-01-30T23:44:41.711Z,96988.23
2023-01-30T23:47:09.716Z,96984.45
2023-01-30T23:49:37.913Z,96988.58
2023-01-30T23:52:06.252Z,96987.95
2023-01-30T23:54:34.256Z,96986.44
2023-01-30T23:57:02.367Z,96982.85
2023-01-30T23:59:30.531Z,96981.88
